Latest Coastal Weather Observations for Cape Ferguson

IDQ60701

Issued at 5:43 pm EST Wednesday 8 February 2023 (issued every 10 minutes, with the page automatically refreshed every 10 minutes)

About coastal observations | Map of coastal stations | Coastal observations for QLD | Marine services | Other Formats
Station Details ID: 032182 Name: CAPE FERGUSON NTC AWS Lat: -19.28 Lon: 147.06 Height: 0.0 m
Data from the previous 72 hours. | See also: Recent months for locations in Queensland
Date/Time
EST
Wind Sea
Height
m
Swell Vis
km
Cloud Weather Temp
°C
Press
MSL
hPa
Rain since
9am
mm
Dir  Spd
kts
Gust
kts
Height
m
Period
s
Dir
08/05:30pm E 16 19 - - - - - - - 29.6 1001.6 -
08/05:00pm E 17 20 - - - - - - - 29.7 1002.1 -
08/04:30pm ESE 15 19 - - - - - - - 30.3 1001.9 -
08/04:00pm E 12 16 - - - - - - - 29.8 1001.9 -
08/03:30pm E 15 18 - - - - - - - 29.6 1002.0 -
08/03:00pm E 12 14 - - - - - - - 29.7 1002.3 -
08/02:30pm E 13 15 - - - - - - - 30.0 1002.5 -
08/02:00pm ESE 13 16 - - - - - - - 30.4 1002.9 -
08/01:30pm SSE 8 10 - - - - - - - 30.2 1003.0 -
08/01:00pm SE 8 10 - - - - - - - 29.9 1003.6 -
08/12:30pm S 11 14 - - - - - - - 29.4 1003.8 -
08/12:00pm SSE 7 9 - - - - - - - 29.4 1004.3 -
08/11:30am SSE 9 13 - - - - - - - 29.1 1004.7 -
08/11:00am SSE 12 14 - - - - - - - 28.8 1005.1 -
08/10:30am SSE 13 18 - - - - - - - 28.7 1005.5 -
08/10:00am SSE 11 14 - - - - - - - 28.6 1005.7 -
08/09:30am SSE 12 16 - - - - - - - 28.4 1005.8 -
08/09:00am SSE 12 15 - - - - - - - 28.2 1005.8 -
08/08:30am SSE 13 17 - - - - - - - 28.3 1005.8 -
08/08:00am SSE 12 16 - - - - - - - 28.2 1005.9 -
08/07:30am SSE 14 16 - - - - - - - 28.1 1005.8 -
08/07:00am S 12 15 - - - - - - - 28.2 1005.5 -
08/06:30am SSE 11 15 - - - - - - - 28.0 1005.0 -
08/06:00am SSE 13 16 - - - - - - - 27.9 1004.6 -
08/05:30am SSE 12 15 - - - - - - - 27.8 1004.2 -
08/05:00am SSE 14 17 - - - - - - - 27.9 1004.2 -
08/04:30am SSE 11 13 - - - - - - - 28.0 1004.3 -
08/04:00am SE 16 21 - - - - - - - 26.5 1004.8 -
08/03:30am SSE 11 15 - - - - - - - 27.7 1004.5 -
08/03:00am SSE 12 16 - - - - - - - 27.7 1004.7 -
08/02:30am SSE 13 15 - - - - - - - 27.7 1004.7 -
08/02:00am SSE 12 15 - - - - - - - 27.8 1005.0 -
08/01:30am SSE 13 17 - - - - - - - 27.5 1005.3 -
08/01:00am SE 15 18 - - - - - - - 27.8 1005.9 -
08/12:30am SSE 13 17 - - - - - - - 28.0 1006.1 -
08/12:00am SSE 12 15 - - - - - - - 28.1 1006.5 -
 
Date/Time
EST
Wind Sea
Height
m
Swell Vis
km
Cloud Weather Temp
°C
Press
MSL
hPa
Rain since
9am
mm
Dir  Spd
kts
Gust
kts
Height
m
Period
s
Dir
07/11:30pm SSE 10 12 - - - - - - - 27.8 1007.0 -
07/11:00pm SSE 9 11 - - - - - - - 28.0 1007.1 -
07/10:30pm SSE 9 11 - - - - - - - 28.4 1007.3 -
07/10:00pm SSE 8 10 - - - - - - - 28.7 1007.3 -
07/09:30pm SSE 9 13 - - - - - - - 28.7 1007.1 -
07/09:00pm SE 12 16 - - - - - - - 29.5 1007.2 -
07/08:30pm SE 7 10 - - - - - - - 29.2 1006.7 -
07/08:00pm SE 6 8 - - - - - - - 28.7 1006.4 -
07/07:30pm SSE 6 8 - - - - - - - 28.6 1006.1 -
07/07:00pm S 5 9 - - - - - - - 28.2 1005.6 -
07/06:30pm SSE 8 11 - - - - - - - 28.3 1005.4 -
07/06:00pm SSE 9 12 - - - - - - - 28.6 1005.0 -
07/05:30pm SSE 13 19 - - - - - - - 28.1 1004.8 -
07/05:00pm SSE 9 18 - - - - - - - 28.2 1004.9 -
07/04:30pm W 2 4 - - - - - - - 28.0 1004.8 -
07/04:00pm SSE 6 13 - - - - - - - 27.2 1005.0 -
07/03:30pm S 5 7 - - - - - - - 28.2 1005.2 -
07/03:00pm SSE 12 16 - - - - - - - 27.1 1005.5 -
07/02:30pm SSW 3 4 - - - - - - - 28.2 1005.5 -
07/02:00pm SSW 5 7 - - - - - - - 27.5 1005.8 -
07/01:30pm SSE 9 12 - - - - - - - 27.2 1006.3 -
07/01:19pm SE 10 13 - - - - - - - 26.8 1006.7 -
07/01:00pm ESE 21 25 - - - - - - - 26.6 1007.4 -
07/12:30pm E 22 26 - - - - - - - 27.4 1007.7 -
07/12:16pm E 15 24 - - - - - - - 28.4 1007.6 -
07/12:00pm ESE 9 12 - - - - - - - 29.9 1007.1 -
07/11:30am SE 7 9 - - - - - - - 30.0 1007.4 -
07/11:00am SE 9 11 - - - - - - - 29.7 1007.7 -
07/10:30am SE 9 12 - - - - - - - 29.4 1007.9 -
07/10:00am SE 9 13 - - - - - - - 29.1 1008.0 -
07/09:30am SSE 9 12 - - - - - - - 28.9 1008.2 -
07/09:00am SSE 10 13 - - - - - - - 28.5 1008.2 -
07/08:30am SSE 11 14 - - - - - - - 28.2 1008.1 -
07/08:00am SSE 12 14 - - - - - - - 27.9 1008.0 -
07/07:30am SSE 12 14 - - - - - - - 28.0 1007.8 -
07/07:00am S 9 12 - - - - - - - 27.6 1007.5 -
07/06:30am SSE 11 15 - - - - - - - 27.3 1007.2 -
07/06:00am SSE 11 13 - - - - - - - 27.2 1006.8 -
07/05:30am SSE 12 15 - - - - - - - 27.4 1006.8 -
07/05:00am SSE 10 12 - - - - - - - 27.3 1006.8 -
07/04:30am SSE 13 15 - - - - - - - 27.6 1006.8 -
07/04:00am SSE 12 14 - - - - - - - 27.8 1006.5 -
07/03:30am SSE 9 12 - - - - - - - 27.9 1006.7 -
07/03:00am SE 11 13 - - - - - - - 27.9 1006.7 -
07/02:30am SSE 10 12 - - - - - - - 27.9 1006.7 -
07/02:00am S 10 12 - - - - - - - 28.1 1007.0 -
07/01:30am SSE 10 13 - - - - - - - 28.4 1007.3 -
07/01:00am E 5 6 - - - - - - - 27.6 1007.8 -
07/12:30am E 12 19 - - - - - - - 27.1 1008.2 -
07/12:00am ESE 8 11 - - - - - - - 28.6 1008.5 -
 
Date/Time
EST
Wind Sea
Height
m
Swell Vis
km
Cloud Weather Temp
°C
Press
MSL
hPa
Rain since
9am
mm
Dir  Spd
kts
Gust
kts
Height
m
Period
s
Dir
06/11:30pm E 12 19 - - - - - - - 27.2 1008.8 -
06/11:00pm SE 9 13 - - - - - - - 29.0 1008.9 -
06/10:30pm E 11 13 - - - - - - - 29.5 1009.0 -
06/10:00pm E 12 15 - - - - - - - 29.6 1009.2 -
06/09:30pm E 11 13 - - - - - - - 29.6 1009.1 -
06/09:00pm E 11 13 - - - - - - - 29.6 1008.9 -
06/08:30pm E 11 13 - - - - - - - 29.5 1008.7 -
06/08:00pm E 12 14 - - - - - - - 29.5 1008.6 -
06/07:30pm E 12 15 - - - - - - - 29.6 1008.1 -
06/07:00pm E 14 16 - - - - - - - 29.5 1007.8 -
06/06:30pm E 14 16 - - - - - - - 29.5 1007.5 -
06/06:00pm E 14 17 - - - - - - - 29.6 1007.3 -
06/05:30pm E 13 15 - - - - - - - 29.8 1007.3 -
06/05:00pm E 13 15 - - - - - - - 29.8 1007.2 -
06/04:30pm E 13 15 - - - - - - - 29.9 1007.3 -
06/04:00pm E 15 17 - - - - - - - 29.9 1007.3 -
06/03:30pm E 14 16 - - - - - - - 29.9 1007.4 -
06/03:00pm E 16 18 - - - - - - - 29.7 1007.7 -
06/02:30pm E 16 19 - - - - - - - 29.5 1007.8 -
06/02:00pm E 14 16 - - - - - - - 29.7 1007.8 -
06/01:30pm E 13 15 - - - - - - - 29.4 1008.2 -
06/01:00pm E 13 15 - - - - - - - 29.2 1008.3 -
06/12:30pm E 15 17 - - - - - - - 29.1 1008.8 -
06/12:00pm E 13 16 - - - - - - - 29.1 1009.0 -
06/11:30am ESE 14 16 - - - - - - - 29.1 1009.4 -
06/11:00am ESE 8 10 - - - - - - - 29.2 1009.5 -
06/10:30am ESE 10 12 - - - - - - - 28.9 1009.7 -
06/10:00am ESE 11 13 - - - - - - - 28.6 1009.8 -
06/09:30am SE 9 11 - - - - - - - 28.4 1009.9 -
06/09:00am SE 9 11 - - - - - - - 28.2 1009.9 -
06/08:30am SE 10 12 - - - - - - - 28.1 1009.9 -
06/08:00am SE 10 13 - - - - - - - 28.1 1009.9 -
06/07:30am SSE 10 11 - - - - - - - 27.9 1009.7 -
06/07:00am SSE 10 12 - - - - - - - 28.0 1009.4 -
06/06:30am SSE 9 12 - - - - - - - 27.8 1009.4 -
06/06:00am SSE 10 14 - - - - - - - 27.9 1009.1 -
06/05:30am SSE 10 13 - - - - - - - 27.4 1008.5 -
06/05:00am SE 14 17 - - - - - - - 27.6 1008.4 -
06/04:30am SSE 12 15 - - - - - - - 27.7 1007.9 -
06/04:00am SSE 13 16 - - - - - - - 27.7 1007.8 -
06/03:30am SSE 12 14 - - - - - - - 27.6 1007.7 -
06/03:00am SSE 12 15 - - - - - - - 27.7 1007.3 -
06/02:30am SSE 10 13 - - - - - - - 27.4 1007.3 -
06/02:00am ESE 7 13 - - - - - - - 27.1 1007.4 -
06/01:30am ESE 10 13 - - - - - - - 27.8 1007.9 -
06/01:00am E 18 24 - - - - - - - 25.9 1008.5 -
06/12:30am SE 14 17 - - - - - - - 27.6 1008.0 -
06/12:00am ESE 14 22 - - - - - - - 28.1 1008.7 -
 
Date/Time
EST
Wind Sea
Height
m
Swell Vis
km
Cloud Weather Temp
°C
Press
MSL
hPa
Rain since
9am
mm
Dir  Spd
kts
Gust
kts
Height
m
Period
s
Dir
05/11:30pm E 13 14 - - - - - - - 29.4 1008.9 -
05/11:00pm E 14 16 - - - - - - - 29.6 1008.9 -
05/10:30pm E 13 15 - - - - - - - 29.8 1008.8 -
05/10:00pm ESE 7 9 - - - - - - - 28.9 1008.5 -
05/09:39pm E 18 26 - - - - - - - 28.1 1009.2 -
05/09:30pm E 12 15 - - - - - - - 29.8 1008.6 -
05/09:00pm E 13 16 - - - - - - - 29.7 1008.2 -
05/08:30pm ENE 11 14 - - - - - - - 29.7 1008.0 -
05/08:00pm E 13 16 - - - - - - - 29.7 1007.7 -
05/07:30pm E 12 15 - - - - - - - 29.8 1007.5 -
05/07:00pm E 14 16 - - - - - - - 29.8 1006.9 -
05/06:30pm ENE 12 14 - - - - - - - 29.5 1006.6 -
05/06:00pm ENE 13 16 - - - - - - - 29.7 1006.0 -

Other formats

Comma delimited format used in spreadsheet applications
http://www.bom.gov.au/fwo/IDQ60701/IDQ60701.94297.axf

JavaScript Object Notation format (JSON) in row-major order
http://www.bom.gov.au/fwo/IDQ60701/IDQ60701.94297.json

Data quality

Most of these data are generated automatically and are frequently updated. Quality checks on data are not normally performed. It is possible for incorrect values to appear. Refer to information at About Latest Weather Observations and please check the disclaimer before using these data.